Time;durP1;ratioP1;P1;durP2;ratioP2;P2;SDS_P1;SDS_P2;PMS_P1;PMS_P2;Temp;Humidity;BMP_temperature;BMP_pressure;BME280_temperature;BME280_humidity;BME280_pressure;Samples;Min_cycle;Max_cycle;Signal;HPM_P1;HPM_P2
2021/12/11 00:00:14;;;;;;;7.30;5.73;;;;;;;9.23;67.57;93752.44;5090401;28;20189;-77
2021/12/11 00:02:42;;;;;;;7.00;5.50;;;;;;;9.22;67.71;93757.69;5090111;28;20221;-76
2021/12/11 00:05:12;;;;;;;8.53;6.10;;;;;;;9.18;67.87;93758.94;5090215;28;20190;-77
2021/12/11 00:07:39;;;;;;;9.47;6.07;;;;;;;9.11;68.20;93763.88;5090981;28;20182;-76
2021/12/11 00:10:13;;;;;;;8.60;6.00;;;;;;;9.07;68.41;93757.47;5090219;28;20228;-76
2021/12/11 00:12:47;;;;;;;8.13;5.37;;;;;;;9.00;68.57;93764.13;5097638;28;20190;-75
2021/12/11 00:15:17;;;;;;;10.90;5.90;;;;;;;9.03;68.53;93785.03;5097378;28;20656;-76
2021/12/11 00:17:44;;;;;;;8.60;5.80;;;;;;;8.96;68.82;93785.78;5090809;28;20194;-76
2021/12/11 00:20:18;;;;;;;8.53;5.57;;;;;;;8.91;68.86;93791.31;5089438;28;20186;-76
2021/12/11 00:22:46;;;;;;;8.77;5.70;;;;;;;8.95;69.00;93796.94;5089509;28;20204;-76
2021/12/11 00:25:17;;;;;;;10.27;6.13;;;;;;;8.91;69.33;93790.53;5090271;28;20186;-76
2021/12/11 00:27:47;;;;;;;8.63;6.27;;;;;;;8.58;69.50;93757.16;5090322;28;20216;-75
2021/12/11 00:30:23;;;;;;;9.40;6.33;;;;;;;8.85;69.53;93793.66;5089720;28;20217;-76
2021/12/11 00:32:57;;;;;;;7.20;5.70;;;;;;;8.83;69.58;93800.66;5090300;28;20197;-76
2021/12/11 00:35:24;;;;;;;9.07;6.17;;;;;;;8.80;69.82;93784.72;5089329;28;20196;-76
2021/12/11 00:37:51;;;;;;;10.27;6.33;;;;;;;8.56;69.74;93756.53;5091091;28;20593;-76
2021/12/11 00:40:23;;;;;;;8.27;5.70;;;;;;;8.76;69.56;93778.34;5093500;28;20178;-79
2021/12/11 00:42:51;;;;;;;8.17;5.73;;;;;;;8.76;69.89;93785.16;5093409;28;20780;-76
2021/12/11 00:45:21;;;;;;;6.77;5.33;;;;;;;8.75;70.04;93781.00;5093118;28;20185;-75
2021/12/11 00:47:54;;;;;;;7.83;5.47;;;;;;;8.73;70.13;93788.03;5093357;28;20193;-76
2021/12/11 00:50:25;;;;;;;10.53;5.53;;;;;;;8.70;70.10;93773.81;5093311;28;20569;-75
2021/12/11 00:52:55;;;;;;;7.77;5.67;;;;;;;8.70;70.20;93773.03;5093362;28;20186;-77
2021/12/11 00:55:26;;;;;;;7.37;5.33;;;;;;;8.68;70.58;93768.09;5092986;28;20568;-76
2021/12/11 00:58:05;;;;;;;8.00;6.03;;;;;;;8.58;70.58;93749.50;5093122;28;20687;-77
2021/12/11 01:00:37;;;;;;;9.20;6.37;;;;;;;8.64;70.49;93768.53;5092634;28;20204;-76
2021/12/11 01:03:05;;;;;;;7.80;5.83;;;;;;;8.62;70.66;93778.06;5092738;28;20618;-77
2021/12/11 01:05:38;;;;;;;6.60;5.23;;;;;;;8.61;70.61;93779.81;5092858;28;20653;-77
2021/12/11 01:08:24;;;;;;;8.20;6.03;;;;;;;8.04;70.73;93685.91;5092995;28;20193;-77
2021/12/11 01:11:05;;;;;;;7.97;5.47;;;;;;;8.60;70.74;93768.03;5092847;28;20236;-77
2021/12/11 01:13:36;;;;;;;7.83;5.80;;;;;;;8.59;70.93;93763.06;5092506;28;20645;-76
2021/12/11 01:16:11;;;;;;;9.57;5.40;;;;;;;8.59;70.77;93770.69;5092698;28;20185;-75
2021/12/11 01:18:41;;;;;;;8.73;5.30;;;;;;;8.57;71.03;93770.06;5092950;28;20181;-76
2021/12/11 01:21:29;;;;;;;5.83;4.80;;;;;;;8.17;71.13;93707.66;5092582;28;20185;-75
2021/12/11 01:24:11;;;;;;;6.40;4.87;;;;;;;8.54;70.73;93761.75;5092595;28;20641;-75
2021/12/11 01:26:46;;;;;;;7.43;4.70;;;;;;;8.55;70.75;93770.22;5092895;28;20186;-75
2021/12/11 01:29:13;;;;;;;7.27;4.83;;;;;;;8.55;70.55;93767.66;5092248;28;20221;-76
2021/12/11 01:31:40;;;;;;;9.17;4.80;;;;;;;8.57;70.58;93758.13;5092414;28;20197;-78
2021/12/11 01:34:07;;;;;;;6.07;4.30;;;;;;;8.40;70.38;93744.44;5092760;28;20182;-76
2021/12/11 01:36:35;;;;;;;7.00;4.47;;;;;;;8.46;70.60;93738.78;5092438;28;20181;-76
2021/12/11 01:39:08;;;;;;;5.47;3.83;;;;;;;8.58;70.51;93753.81;5092000;28;20236;-77
2021/12/11 01:41:35;;;;;;;5.67;4.20;;;;;;;8.44;70.33;93730.47;5092682;28;20295;-77
2021/12/11 01:44:10;;;;;;;5.23;4.10;;;;;;;8.59;70.39;93747.75;5092327;28;20201;-77
2021/12/11 01:46:38;;;;;;;5.20;4.57;;;;;;;8.58;70.45;93741.88;5091973;28;20197;-76
2021/12/11 01:49:09;;;;;;;7.10;4.77;;;;;;;8.60;70.39;93737.44;5091446;28;20310;-76
2021/12/11 01:51:40;;;;;;;5.63;4.33;;;;;;;8.60;70.50;93751.94;5092758;28;20181;-78
2021/12/11 01:54:12;;;;;;;5.50;4.13;;;;;;;8.62;70.40;93745.72;5092431;28;20423;-76
2021/12/11 01:56:42;;;;;;;5.50;4.47;;;;;;;8.61;70.48;93750.97;5092543;28;20194;-76
2021/12/11 01:59:20;;;;;;;4.93;4.30;;;;;;;8.36;70.39;93714.31;5091727;28;20714;-77
2021/12/11 02:01:52;;;;;;;4.20;3.70;;;;;;;8.60;70.24;93747.63;5091970;28;20570;-77
2021/12/11 02:04:21;;;;;;;5.23;3.83;;;;;;;8.61;70.22;93741.59;5091959;28;20668;-77
2021/12/11 02:06:52;;;;;;;6.00;4.40;;;;;;;8.61;70.04;93735.69;5091719;28;20189;-77
2021/12/11 02:09:22;;;;;;;4.77;4.17;;;;;;;8.60;69.99;93723.91;5091830;28;20334;-78
2021/12/11 02:11:51;;;;;;;5.67;4.13;;;;;;;8.59;69.97;93727.38;5091730;28;20928;-77
2021/12/11 02:14:25;;;;;;;4.47;3.70;;;;;;;8.56;69.99;93736.13;5091621;28;20557;-77
2021/12/11 02:16:53;;;;;;;4.53;3.97;;;;;;;8.38;69.77;93709.91;5091480;28;20193;-75
2021/12/11 02:19:28;;;;;;;3.90;3.50;;;;;;;8.48;70.17;93734.31;5091159;28;20201;-76
2021/12/11 02:21:57;;;;;;;5.40;3.93;;;;;;;8.45;70.14;93739.72;5091642;28;20181;-77
2021/12/11 02:24:31;;;;;;;3.70;3.30;;;;;;;8.27;70.46;93713.44;5091396;28;20300;-76
2021/12/11 02:26:59;;;;;;;4.80;4.00;;;;;;;8.24;70.54;93711.19;5091986;28;20580;-77
2021/12/11 02:29:31;;;;;;;5.83;4.17;;;;;;;8.40;70.58;93731.72;5091103;28;20376;-76
2021/12/11 02:32:09;;;;;;;4.90;3.90;;;;;;;8.39;70.48;93731.88;5091650;28;20193;-78
2021/12/11 02:34:40;;;;;;;4.67;3.70;;;;;;;8.38;70.47;93728.53;5091073;28;20181;-77
2021/12/11 02:37:11;;;;;;;6.30;5.03;;;;;;;7.88;70.84;93642.50;5091312;28;20189;-76
2021/12/11 02:39:43;;;;;;;4.70;4.30;;;;;;;8.00;70.68;93671.88;5091079;28;20201;-76
2021/12/11 02:42:15;;;;;;;4.80;3.90;;;;;;;8.39;70.52;93732.66;5091272;28;20193;-76
2021/12/11 02:44:46;;;;;;;5.00;4.23;;;;;;;8.40;70.43;93721.53;5091505;28;20250;-76
2021/12/11 02:47:16;;;;;;;9.60;4.60;;;;;;;8.34;70.49;93701.72;5092063;28;20189;-77
2021/12/11 02:49:48;;;;;;;5.93;4.13;;;;;;;8.43;70.44;93718.69;5098227;28;20262;-77
2021/12/11 02:52:24;;;;;;;7.80;4.40;;;;;;;8.44;70.46;93712.63;5094306;28;20181;-75
2021/12/11 02:54:57;;;;;;;7.43;4.67;;;;;;;8.45;70.52;93713.44;5090679;28;20189;-75
2021/12/11 02:57:28;;;;;;;6.73;4.23;;;;;;;8.46;70.59;93705.66;5091333;28;20247;-76
2021/12/11 02:59:55;;;;;;;4.23;3.83;;;;;;;8.48;70.30;93700.41;5091813;28;20201;-76
2021/12/11 03:02:29;;;;;;;6.03;4.00;;;;;;;8.49;70.53;93702.00;5093076;28;20190;-77
2021/12/11 03:05:07;;;;;;;4.27;3.33;;;;;;;8.48;70.67;93700.41;5091224;28;20196;-75
2021/12/11 03:07:37;;;;;;;4.10;3.70;;;;;;;8.47;70.67;93691.19;5091350;28;20201;-78
2021/12/11 03:10:09;;;;;;;5.17;4.07;;;;;;;8.46;70.64;93699.75;5090887;28;20274;-78
2021/12/11 03:12:36;;;;;;;5.37;3.33;;;;;;;8.36;70.47;93686.28;5091090;28;20201;-77
2021/12/11 03:15:04;;;;;;;4.03;3.63;;;;;;;8.46;70.73;93704.84;5091198;28;20525;-78
2021/12/11 03:17:31;;;;;;;4.17;3.77;;;;;;;8.45;70.77;93693.84;5090898;28;20190;-76
2021/12/11 03:19:58;;;;;;;4.33;3.43;;;;;;;8.32;70.83;93662.84;5090548;28;20200;-76
2021/12/11 03:22:30;;;;;;;5.10;3.93;;;;;;;8.48;70.61;93690.22;5090832;28;20195;-77
2021/12/11 03:24:58;;;;;;;4.20;3.63;;;;;;;8.48;70.62;93693.56;5090867;28;20197;-77
2021/12/11 03:27:25;;;;;;;4.33;3.57;;;;;;;8.50;70.61;93688.31;5091270;28;20186;-77
2021/12/11 03:29:52;;;;;;;5.13;3.70;;;;;;;8.51;70.51;93684.84;5090812;28;20232;-77
2021/12/11 03:32:20;;;;;;;4.40;3.50;;;;;;;8.55;70.48;93688.69;5090395;28;20687;-76
2021/12/11 03:34:49;;;;;;;5.83;3.50;;;;;;;8.28;70.39;93628.44;5089114;28;20193;-76
2021/12/11 03:37:21;;;;;;;5.07;3.53;;;;;;;8.21;70.44;93609.63;5090408;28;20190;-79
2021/12/11 03:39:50;;;;;;;3.53;3.23;;;;;;;8.62;70.36;93655.75;5090695;28;20607;-77
2021/12/11 03:42:22;;;;;;;4.37;3.40;;;;;;;8.58;70.47;93659.53;5090408;28;20518;-77
2021/12/11 03:44:49;;;;;;;4.53;4.00;;;;;;;8.66;70.40;93668.03;5090219;28;20181;-76
2021/12/11 03:47:22;;;;;;;4.50;3.97;;;;;;;8.68;70.41;93672.97;5090589;28;20186;-78
2021/12/11 03:49:49;;;;;;;4.57;3.77;;;;;;;8.70;70.53;93669.31;5090205;28;20565;-76
2021/12/11 03:52:17;;;;;;;4.90;4.27;;;;;;;8.71;70.47;93670.13;5090709;28;20194;-77
2021/12/11 03:54:50;;;;;;;5.67;4.57;;;;;;;8.71;70.46;93670.91;5089572;28;20193;-77
2021/12/11 03:57:22;;;;;;;5.00;4.30;;;;;;;8.72;70.54;93669.97;5090656;28;20182;-77
2021/12/11 03:59:49;;;;;;;5.60;4.80;;;;;;;8.74;70.50;93680.81;5090188;28;20201;-77
2021/12/11 04:02:20;;;;;;;4.90;4.30;;;;;;;8.67;70.46;93672.16;5090210;28;20190;-76
2021/12/11 04:04:50;;;;;;;7.93;5.00;;;;;;;8.69;70.54;93682.22;5099118;28;20261;-76
2021/12/11 04:07:22;;;;;;;6.50;4.53;;;;;;;8.79;70.56;93700.75;5102237;28;20242;-76
2021/12/11 04:09:49;;;;;;;5.47;4.37;;;;;;;8.79;70.68;93705.84;5090368;28;20224;-77
2021/12/11 04:12:22;;;;;;;5.07;4.57;;;;;;;8.80;70.54;93699.78;5092616;28;20186;-78
2021/12/11 04:14:52;;;;;;;5.47;4.53;;;;;;;8.45;70.39;93631.91;5093851;28;20194;-75
2021/12/11 04:17:22;;;;;;;4.40;3.87;;;;;;;8.82;70.62;93694.56;5094567;28;20197;-75
2021/12/11 04:19:50;;;;;;;6.10;4.53;;;;;;;8.84;70.62;93685.00;5093747;28;20201;-78
2021/12/11 04:22:17;;;;;;;5.67;4.40;;;;;;;8.83;70.55;93679.09;5093909;28;20194;-76
2021/12/11 04:24:46;;;;;;;4.10;3.70;;;;;;;8.86;70.52;93678.00;5093779;28;20593;-77
2021/12/11 04:27:16;;;;;;;4.43;3.77;;;;;;;8.86;70.52;93678.81;5094300;28;20192;-76
2021/12/11 04:29:48;;;;;;;5.20;3.80;;;;;;;8.87;70.54;93684.69;5093503;28;20216;-76
2021/12/11 04:32:15;;;;;;;4.30;3.83;;;;;;;8.84;70.61;93670.50;5094132;28;20254;-76
2021/12/11 04:34:42;;;;;;;4.33;3.83;;;;;;;8.87;70.64;93672.75;5093392;28;20186;-76
2021/12/11 04:37:15;;;;;;;3.70;3.40;;;;;;;8.81;70.63;93652.97;5093879;28;20185;-76
2021/12/11 04:39:46;;;;;;;3.97;3.67;;;;;;;8.90;70.66;93654.59;5093418;28;20200;-77
2021/12/11 04:42:20;;;;;;;3.87;3.57;;;;;;;8.91;70.82;93661.28;5093923;28;20272;-76
2021/12/11 04:44:49;;;;;;;3.67;3.30;;;;;;;8.92;70.95;93657.00;5093460;28;20193;-77
2021/12/11 04:47:30;;;;;;;4.00;3.23;;;;;;;8.93;71.11;93654.28;5093736;28;20228;-78
2021/12/11 04:50:06;;;;;;;4.30;4.00;;;;;;;8.89;70.98;93644.53;5093395;28;20578;-77
2021/12/11 04:52:49;;;;;;;3.40;3.10;;;;;;;8.97;71.17;93664.97;5093359;28;20285;-77
2021/12/11 04:55:28;;;;;;;3.70;3.30;;;;;;;8.97;71.35;93655.56;5093162;28;20185;-77
2021/12/11 04:58:07;;;;;;;3.37;2.77;;;;;;;8.99;71.59;93666.44;5093474;28;20211;-76
2021/12/11 05:00:48;;;;;;;2.57;2.30;;;;;;;8.99;71.61;93665.63;5093499;28;20254;-77
2021/12/11 05:03:47;;;;;;;2.80;2.60;;;;;;;8.91;71.96;93650.31;5092969;28;20545;-77
2021/12/11 05:06:36;;;;;;;2.90;2.50;;;;;;;8.97;72.23;93655.56;5093499;28;20182;-75
2021/12/11 05:11:54;;;;;;;2.90;2.57;;;;;;;8.94;72.61;93666.09;5092549;28;20216;-76
2021/12/11 05:14:24;;;;;;;2.67;2.47;;;;;;;8.92;73.00;93660.34;5093192;28;20193;-75
2021/12/11 05:16:53;;;;;;;3.23;2.70;;;;;;;8.86;73.07;93643.13;5093367;28;20201;-77
2021/12/11 05:19:20;;;;;;;2.60;2.40;;;;;;;8.88;72.87;93651.41;5093089;28;20194;-79
2021/12/11 05:21:48;;;;;;;3.37;2.67;;;;;;;8.88;72.80;93653.16;5092776;28;20193;-77
2021/12/11 05:24:16;;;;;;;2.50;2.30;;;;;;;8.92;72.91;93665.44;5092110;28;20204;-78
2021/12/11 05:26:43;;;;;;;2.83;2.63;;;;;;;8.91;72.92;93661.28;5092604;28;20197;-77
2021/12/11 05:29:10;;;;;;;2.60;2.40;;;;;;;8.91;73.10;93657.94;5093339;28;20194;-78
2021/12/11 05:31:38;;;;;;;3.07;2.70;;;;;;;8.92;73.06;93657.78;5092819;28;20229;-77
2021/12/11 05:34:07;;;;;;;3.57;2.70;;;;;;;8.92;72.92;93659.53;5092533;28;20584;-76
2021/12/11 05:36:35;;;;;;;2.60;2.40;;;;;;;8.93;72.78;93649.19;5092629;28;20201;-77
2021/12/11 05:39:07;;;;;;;3.90;2.67;;;;;;;8.94;73.01;93660.22;5092816;28;20247;-77
2021/12/11 05:41:34;;;;;;;2.70;2.50;;;;;;;8.95;73.10;93654.16;5093079;28;20189;-77
2021/12/11 05:44:01;;;;;;;2.80;2.60;;;;;;;8.96;73.01;93661.63;5093029;28;20185;-76
2021/12/11 05:46:28;;;;;;;2.57;2.37;;;;;;;8.97;73.10;93654.78;5093337;28;20588;-76
2021/12/11 05:48:55;;;;;;;3.47;2.33;;;;;;;8.75;73.19;93633.97;5092660;28;20584;-76
2021/12/11 05:51:25;;;;;;;2.53;2.33;;;;;;;9.02;72.94;93663.59;5092936;28;20221;-76
2021/12/11 05:53:57;;;;;;;2.53;2.33;;;;;;;8.97;73.25;93658.13;5092438;28;20189;-77
2021/12/11 05:56:25;;;;;;;3.50;2.60;;;;;;;9.07;73.05;93670.78;5092505;28;20181;-76
2021/12/11 05:58:58;;;;;;;2.80;2.60;;;;;;;9.09;73.14;93676.50;5092467;28;20200;-77
2021/12/11 06:01:32;;;;;;;2.80;2.60;;;;;;;9.03;73.26;93667.72;5092053;28;20193;-78
2021/12/11 06:04:02;;;;;;;4.73;3.50;;;;;;;9.12;73.29;93677.97;5092152;28;20188;-72
2021/12/11 06:06:30;;;;;;;4.43;3.77;;;;;;;9.12;73.33;93677.97;5092820;28;20196;-76
2021/12/11 06:08:58;;;;;;;4.17;3.77;;;;;;;9.16;73.30;93692.00;5092239;28;20186;-75
2021/12/11 06:11:25;;;;;;;4.93;4.07;;;;;;;9.17;73.22;93689.28;5092344;28;20660;-78
2021/12/11 06:13:52;;;;;;;4.97;4.27;;;;;;;9.18;73.49;93679.88;5092275;28;20193;-75
2021/12/11 06:16:19;;;;;;;7.63;5.10;;;;;;;9.03;73.53;93646.53;5092688;28;20185;-73
2021/12/11 06:18:46;;;;;;;6.80;5.13;;;;;;;9.23;73.53;93683.56;5091749;28;20201;-77
2021/12/11 06:21:15;;;;;;;7.10;5.80;;;;;;;8.83;73.36;93612.81;5092114;28;20190;-75
2021/12/11 06:23:45;;;;;;;7.23;6.23;;;;;;;9.30;73.52;93686.31;5091923;28;20622;-74
2021/12/11 06:26:12;;;;;;;8.50;6.50;;;;;;;9.36;73.57;93687.44;5092271;28;20193;-74
2021/12/11 06:28:40;;;;;;;9.70;6.60;;;;;;;9.31;73.12;93677.69;5091556;28;20194;-77
2021/12/11 06:31:17;;;;;;;7.27;6.33;;;;;;;9.44;73.21;93692.56;5069437;28;20316;-78
2021/12/11 06:33:52;;;;;;;8.97;6.27;;;;;;;9.48;73.24;93691.31;5067564;28;20200;-78
2021/12/11 06:36:22;;;;;;;7.60;6.73;;;;;;;9.20;73.04;93635.44;5069118;28;20674;-74
2021/12/11 06:38:54;;;;;;;8.70;6.93;;;;;;;9.56;73.03;93683.66;5069018;28;20244;-76
2021/12/11 06:41:23;;;;;;;10.43;6.63;;;;;;;9.61;72.92;93690.84;5068487;28;20186;-77
2021/12/11 06:43:50;;;;;;;9.57;6.67;;;;;;;9.68;72.88;93692.63;5083342;28;20198;-77
2021/12/11 06:46:18;;;;;;;9.07;7.13;;;;;;;9.73;72.79;93692.94;5093969;28;20262;-75
2021/12/11 06:48:45;;;;;;;9.77;7.47;;;;;;;9.78;72.49;93689.94;5088652;28;20201;-76
2021/12/11 06:51:12;;;;;;;10.80;7.13;;;;;;;9.83;72.52;93692.81;5089458;28;20229;-73
2021/12/11 06:53:42;;;;;;;12.27;7.10;;;;;;;9.88;72.36;93682.13;5088461;28;20186;-74
2021/12/11 06:56:13;;;;;;;7.80;6.73;;;;;;;9.92;72.21;93673.97;5088799;28;20189;-75
2021/12/11 06:58:40;;;;;;;9.03;6.47;;;;;;;9.95;71.95;93667.75;5088698;28;20186;-78
2021/12/11 07:01:09;;;;;;;9.37;7.53;;;;;;;9.84;71.95;93645.09;5088994;28;20193;-77
2021/12/11 07:03:38;;;;;;;8.23;6.97;;;;;;;10.12;71.61;93671.13;5094355;28;20182;-78
2021/12/11 07:06:05;;;;;;;8.83;7.07;;;;;;;10.18;71.82;93670.47;5091849;28;20200;-75
2021/12/11 07:08:32;;;;;;;10.70;7.23;;;;;;;10.25;71.88;93666.34;5088873;28;20197;-77
2021/12/11 07:11:00;;;;;;;9.50;7.40;;;;;;;10.31;71.54;93665.69;5088993;28;20221;-77
2021/12/11 07:13:29;;;;;;;9.03;6.83;;;;;;;10.30;71.26;93652.13;5088600;28;20190;-77
2021/12/11 07:15:59;;;;;;;8.47;7.00;;;;;;;10.40;71.24;93667.28;5088787;28;20201;-78
2021/12/11 07:18:27;;;;;;;10.20;7.63;;;;;;;10.43;70.90;93661.06;5088365;28;20695;-80
2021/12/11 07:20:55;;;;;;;10.07;7.87;;;;;;;10.46;70.73;93660.75;5087946;28;20198;-78
2021/12/11 07:23:22;;;;;;;11.00;8.43;;;;;;;10.42;70.77;93637.25;5088620;28;20185;-77
2021/12/11 07:25:51;;;;;;;9.37;8.10;;;;;;;10.50;70.63;93650.03;5088210;28;20214;-76
2021/12/11 07:28:21;;;;;;;11.07;8.90;;;;;;;10.55;70.47;93655.44;5087798;28;20198;-76
2021/12/11 07:30:51;;;;;;;11.33;8.97;;;;;;;10.76;69.92;93657.47;5087752;28;20292;-77
2021/12/11 07:33:19;;;;;;;13.40;9.00;;;;;;;10.91;69.24;93634.56;5088333;28;20502;-77
2021/12/11 07:35:47;;;;;;;13.67;8.43;;;;;;;11.28;68.98;93645.94;5088203;28;20221;-77
2021/12/11 07:38:15;;;;;;;10.37;8.27;;;;;;;11.47;68.86;93644.69;5088185;28;20255;-77
2021/12/11 07:40:46;;;;;;;12.10;8.43;;;;;;;11.65;68.61;93641.88;5087590;28;20192;-75
2021/12/11 07:43:14;;;;;;;13.20;9.73;;;;;;;11.70;68.15;93634.47;5088425;28;20190;-77
2021/12/11 07:45:41;;;;;;;12.70;10.23;;;;;;;11.62;67.66;93596.13;5087646;28;20204;-77
2021/12/11 07:48:10;;;;;;;14.17;11.80;;;;;;;12.13;67.31;93653.56;5088213;28;20186;-75
2021/12/11 07:50:39;;;;;;;14.97;11.40;;;;;;;12.26;66.68;93648.66;5087956;28;20193;-78
2021/12/11 07:53:07;;;;;;;16.80;13.00;;;;;;;12.37;66.43;93642.31;5087840;28;20194;-78
2021/12/11 07:55:36;;;;;;;16.30;13.77;;;;;;;12.43;66.04;93646.72;5088510;28;20194;-77
2021/12/11 07:58:05;;;;;;;18.20;14.07;;;;;;;12.48;65.82;93646.22;5100361;28;20197;-76
2021/12/11 08:00:34;;;;;;;17.93;14.30;;;;;;;12.53;65.77;93644.72;5098102;28;20208;-78
2021/12/11 08:03:02;;;;;;;15.97;13.30;;;;;;;12.59;65.57;93634.72;5088209;28;20193;-76
2021/12/11 08:05:31;;;;;;;15.90;12.97;;;;;;;12.60;65.27;93636.31;5087415;28;20703;-76
2021/12/11 08:08:01;;;;;;;14.93;12.30;;;;;;;12.60;65.32;93628.63;5088113;28;20630;-75
2021/12/11 08:10:30;;;;;;;16.53;11.80;;;;;;;12.61;65.22;93643.84;5087555;28;20579;-79
2021/12/11 08:12:57;;;;;;;13.97;11.07;;;;;;;12.63;64.83;93643.66;5087770;28;20221;-79
2021/12/11 08:15:25;;;;;;;13.20;10.97;;;;;;;12.64;65.08;93653.75;5088040;28;20713;-79
2021/12/11 08:17:54;;;;;;;14.63;10.77;;;;;;;12.64;64.57;93635.78;5087272;28;20185;-78
2021/12/11 08:20:23;;;;;;;16.67;10.97;;;;;;;12.88;64.30;93647.56;5087487;28;20197;-79
2021/12/11 08:22:53;;;;;;;17.87;12.37;;;;;;;13.16;63.79;93639.22;5087742;28;20259;-79
2021/12/11 08:25:22;;;;;;;15.47;11.77;;;;;;;13.30;63.11;93628.19;5088111;28;20209;-78
2021/12/11 08:27:50;;;;;;;14.93;11.20;;;;;;;13.50;62.99;93644.59;5087822;28;20189;-77
2021/12/11 08:30:20;;;;;;;18.27;11.77;;;;;;;13.52;62.95;93644.41;5089076;28;20197;-76
2021/12/11 08:32:47;;;;;;;15.70;11.70;;;;;;;13.52;62.39;93645.22;5087604;28;20224;-77
2021/12/11 08:35:15;;;;;;;15.77;12.53;;;;;;;13.51;62.63;93643.63;5087180;28;20204;-77
2021/12/11 08:37:46;;;;;;;18.00;13.43;;;;;;;13.53;62.36;93628.03;5087425;28;20235;-77
2021/12/11 08:40:19;;;;;;;18.90;14.70;;;;;;;13.55;62.10;93633.75;5087385;28;20194;-77
2021/12/11 08:42:46;;;;;;;22.33;16.63;;;;;;;13.60;62.20;93625.50;5087092;28;20200;-75
2021/12/11 08:45:22;;;;;;;20.90;16.00;;;;;;;13.40;62.12;93594.50;5087450;28;20194;-78
2021/12/11 08:47:51;;;;;;;23.03;16.10;;;;;;;13.61;62.19;93622.78;5087152;28;20201;-78
2021/12/11 08:50:21;;;;;;;22.70;16.20;;;;;;;13.71;61.98;93633.53;5087758;28;20194;-79
2021/12/11 08:52:50;;;;;;;24.97;16.47;;;;;;;13.74;62.05;93622.91;5087346;28;20206;-79
2021/12/11 08:55:22;;;;;;;26.73;18.60;;;;;;;13.77;61.98;93617.41;5087598;28;20186;-75
2021/12/11 08:57:51;;;;;;;30.43;18.63;;;;;;;13.80;61.89;93613.66;5086812;28;20569;-84
2021/12/11 09:00:26;;;;;;;23.97;18.03;;;;;;;13.61;61.63;93576.53;5091245;28;20185;-77
2021/12/11 09:02:58;;;;;;;29.60;18.30;;;;;;;13.93;61.84;93611.19;5090616;28;20185;-75
2021/12/11 09:05:30;;;;;;;24.63;17.63;;;;;;;13.95;61.71;93598.97;5091291;28;20601;-76
2021/12/11 09:08:02;;;;;;;26.00;18.50;;;;;;;14.10;61.56;93610.94;5090581;28;20193;-78
2021/12/11 09:10:39;;;;;;;26.73;17.87;;;;;;;14.09;61.57;93591.38;5091144;28;20189;-78
2021/12/11 09:13:10;;;;;;;22.83;16.90;;;;;;;14.18;61.50;93597.97;5090389;28;20228;-75
2021/12/11 09:15:41;;;;;;;22.50;16.83;;;;;;;14.21;61.51;93585.53;5090957;28;20185;-76
2021/12/11 09:18:10;;;;;;;25.73;17.83;;;;;;;14.23;61.40;93582.78;5089792;28;20186;-76
2021/12/11 09:20:41;;;;;;;24.30;17.03;;;;;;;14.24;61.23;93586.91;5090882;28;20209;-77
2021/12/11 09:23:15;;;;;;;22.33;15.23;;;;;;;14.21;61.23;93575.25;5092518;28;20185;-75
2021/12/11 09:25:47;;;;;;;21.57;15.93;;;;;;;14.19;61.10;93577.19;5092713;28;20189;-75
2021/12/11 09:28:17;;;;;;;20.63;15.30;;;;;;;14.17;61.16;93575.81;5092822;28;20201;-76
2021/12/11 09:30:49;;;;;;;19.87;14.73;;;;;;;14.13;61.23;93570.25;5093070;28;20661;-75
2021/12/11 09:33:19;;;;;;;18.27;13.93;;;;;;;14.13;61.28;93561.75;5092893;28;20217;-75
2021/12/11 09:35:51;;;;;;;20.20;14.13;;;;;;;14.13;61.20;93569.44;5092457;28;20196;-76
2021/12/11 09:38:24;;;;;;;19.23;14.23;;;;;;;14.13;61.08;93566.88;5092067;28;20697;-75
2021/12/11 09:40:57;;;;;;;21.90;13.20;;;;;;;14.15;60.98;93559.75;5092165;28;20695;-76
2021/12/11 09:43:38;;;;;;;16.43;12.67;;;;;;;14.17;61.03;93561.19;5092201;28;20208;-76
2021/12/11 09:46:07;;;;;;;14.77;11.73;;;;;;;14.20;60.88;93560.78;5091240;28;20194;-76
2021/12/11 09:48:34;;;;;;;15.60;11.80;;;;;;;14.24;60.91;93556.84;5092454;28;20188;-75
2021/12/11 09:51:08;;;;;;;16.80;12.27;;;;;;;14.28;60.82;93560.63;5091504;28;20197;-76
2021/12/11 09:53:38;;;;;;;15.77;11.80;;;;;;;14.30;60.74;93558.69;5092205;28;20289;-75
2021/12/11 09:56:08;;;;;;;16.20;11.87;;;;;;;14.32;60.78;93548.22;5091740;28;20603;-76
2021/12/11 09:58:39;;;;;;;18.40;12.47;;;;;;;14.31;60.64;93539.69;5091988;28;20185;-74
2021/12/11 10:01:09;;;;;;;12.47;11.17;;;;;;;14.24;60.72;93533.72;5091995;28;20272;-75
2021/12/11 10:03:56;;;;;;;17.80;12.30;;;;;;;14.20;60.57;93535.06;5097952;28;20549;-77
2021/12/11 10:06:52;;;;;;;17.07;11.37;;;;;;;14.25;60.56;93529.38;5099231;28;20257;-77
2021/12/11 10:09:35;;;;;;;21.70;11.73;;;;;;;14.21;60.82;93528.97;5096100;28;20197;-75
2021/12/11 10:15:00;;;;;;;16.30;11.80;;;;;;;14.13;60.76;93518.81;5095962;28;20204;-75
2021/12/11 10:17:39;;;;;;;17.30;12.10;;;;;;;14.18;60.75;93525.97;5096423;28;20199;-77
2021/12/11 10:20:29;;;;;;;15.53;12.03;;;;;;;14.18;60.75;93529.34;5097935;28;20197;-75
2021/12/11 10:22:59;;;;;;;20.43;11.73;;;;;;;14.15;60.72;93521.19;5099549;28;20569;-76
2021/12/11 10:25:33;;;;;;;14.60;11.10;;;;;;;14.16;60.62;93518.47;5095582;28;20262;-77
2021/12/11 10:28:02;;;;;;;16.77;11.37;;;;;;;14.26;60.78;93529.19;5096686;28;20189;-77
2021/12/11 10:30:37;;;;;;;19.80;10.27;;;;;;;14.31;60.54;93526.06;5098974;28;20204;-77
2021/12/11 10:33:07;;;;;;;11.73;8.13;;;;;;;14.22;60.43;93502.25;5097807;28;20224;-77
2021/12/11 10:35:38;;;;;;;10.07;8.17;;;;;;;14.35;60.35;93519.56;5096019;28;20186;-76
2021/12/11 10:38:10;;;;;;;10.80;7.43;;;;;;;14.35;60.21;93516.97;5094727;28;20577;-75
2021/12/11 10:40:42;;;;;;;9.23;6.37;;;;;;;14.35;60.16;93508.47;5096754;28;20691;-76
2021/12/11 10:43:13;;;;;;;8.27;6.63;;;;;;;14.33;59.96;93508.63;5096264;28;20220;-74
2021/12/11 10:45:43;;;;;;;7.43;4.97;;;;;;;14.30;59.89;93501.31;5094947;28;20182;-75
2021/12/11 10:48:17;;;;;;;6.53;5.07;;;;;;;14.23;59.87;93493.56;5095830;28;20186;-77
2021/12/11 10:50:47;;;;;;;5.30;4.67;;;;;;;14.24;59.50;93490.00;5097349;28;20196;-76
2021/12/11 10:56:10;;;;;;;4.30;3.90;;;;;;;14.23;59.61;93493.56;5095487;28;20211;-75
2021/12/11 10:58:40;;;;;;;4.83;3.90;;;;;;;14.24;59.32;93490.00;5095450;28;20200;-77
2021/12/11 11:01:25;;;;;;;5.43;3.67;;;;;;;14.23;59.49;93478.13;5099158;28;20189;-76
2021/12/11 11:03:59;;;;;;;3.93;3.43;;;;;;;14.18;59.47;93461.69;5098681;28;20190;-75
2021/12/11 11:06:30;;;;;;;4.37;3.97;;;;;;;14.30;59.41;93488.47;5097084;28;20251;-74
2021/12/11 11:08:58;;;;;;;4.73;3.97;;;;;;;14.21;59.28;93464.69;5094673;28;20197;-76
2021/12/11 11:11:29;;;;;;;4.30;3.90;;;;;;;14.21;59.36;93453.63;5095119;28;20294;-78
2021/12/11 11:14:10;;;;;;;5.23;3.57;;;;;;;14.19;59.53;93430.66;5097690;28;20697;-77
2021/12/11 11:16:45;;;;;;;4.83;3.63;;;;;;;14.34;59.32;93463.16;5099491;28;20181;-76
2021/12/11 11:19:12;;;;;;;6.47;3.43;;;;;;;14.32;59.57;93459.00;5096418;28;20224;-75
2021/12/11 11:21:44;;;;;;;4.00;3.47;;;;;;;14.29;59.52;93461.97;5093850;28;20541;-77
2021/12/11 11:24:54;;;;;;;6.23;3.50;;;;;;;14.27;59.65;93460.56;5095317;28;20201;-76
2021/12/11 11:27:27;;;;;;;4.00;3.30;;;;;;;14.25;59.48;93458.19;5055483;28;20242;-75
2021/12/11 11:29:56;;;;;;;3.53;3.23;;;;;;;14.27;59.46;93438.19;5055082;28;20198;-77
2021/12/11 11:32:35;;;;;;;3.70;3.30;;;;;;;14.22;59.33;93434.63;5036556;28;20248;-77
2021/12/11 11:35:22;;;;;;;3.53;3.23;;;;;;;14.35;59.38;93439.81;5054052;28;20187;-76
2021/12/11 11:37:51;;;;;;;3.70;3.00;;;;;;;14.32;59.15;93424.78;5053035;28;20223;-75
2021/12/11 11:40:24;;;;;;;4.20;2.80;;;;;;;14.40;58.99;93432.31;5055006;28;20194;-76
2021/12/11 11:42:52;;;;;;;3.57;2.93;;;;;;;14.44;58.91;93422.44;5077151;28;20206;-77
2021/12/11 11:48:11;;;;;;;2.93;2.70;;;;;;;14.42;59.08;93425.22;5095719;28;20671;-77
2021/12/11 11:50:41;;;;;;;4.00;2.83;;;;;;;14.40;59.16;93427.19;5094690;28;20189;-76
2021/12/11 11:53:10;;;;;;;3.90;2.77;;;;;;;14.31;59.31;93413.69;5096944;28;20224;-75
2021/12/11 11:56:07;;;;;;;6.30;2.83;;;;;;;14.32;59.25;93435.06;5097496;28;20189;-76
2021/12/11 11:58:39;;;;;;;3.23;2.80;;;;;;;14.28;59.39;93429.50;5100630;28;20220;-77
2021/12/11 12:01:17;;;;;;;5.83;3.07;;;;;;;14.21;59.25;93418.41;5098468;28;20186;-76
2021/12/11 12:03:46;;;;;;;3.67;3.00;;;;;;;14.23;59.41;93418.22;5089940;28;20666;-75